This is the latest recevied weather packets stored in our database for station/object N4OGP-WX. If no packets are shown the sender has not sent any weather packets the latest 10 day(s).
| Time | Temp. | Humidity | Pressure | Rain* | Wind** | Luminosity | Snow |
|---|---|---|---|---|---|---|---|
| 1777587170 | 23.89° C | 42% | 1020.4 hPa | 0 mm | - | - | - |
| 1777587080 | 27.78° C | 65% | 1008.1 hPa | 0 mm | - | - | - |
| 1777587020 | 23.89° C | 42% | 1020.4 hPa | 0 mm | - | - | - |
| 1777586960 | 23.89° C | 42% | 1020.4 hPa | 0 mm | - | - | - |
| 1777586900 | 23.89° C | 42% | 1020.4 hPa | 0 mm | - | - | - |
| 1777586840 | 27.78° C | 66% | 1008.2 hPa | 0 mm | - | - | - |
| 1777586750 | 27.78° C | 66% | 1008.3 hPa | 0 mm | - | - | - |
| 1777586660 | 23.89° C | 42% | 1020.4 hPa | 0 mm | - | - | - |
| 1777586600 | 27.22° C | 65% | 1008.3 hPa | 0 mm | - | - | - |
| 1777586510 | 27.22° C | 66% | 1008.3 hPa | 0 mm | - | - | - |
| 1777586450 | 27.22° C | 66% | 1008.3 hPa | 0 mm | - | - | - |
| 1777586360 | 23.89° C | 42% | 1020.4 hPa | 0 mm | - | - | - |
| 1777586270 | 23.89° C | 42% | 1020.4 hPa | 0 mm | - | - | - |
| 1777586180 | 23.89° C | 42% | 1020.4 hPa | 0 mm | - | - | - |
| 1777586120 | 26.67° C | 68% | 1008.1 hPa | 0 mm | - | - | - |
| 1777586060 | 23.89° C | 42% | 1020.4 hPa | 0 mm | - | - | - |
| 1777585970 | 26.67° C | 69% | 1008.1 hPa | 0 mm | - | - | - |
| 1777585880 | 23.89° C | 42% | 1020.4 hPa | 0 mm | - | - | - |
| 1777585790 | 23.89° C | 42% | 1020.4 hPa | 0 mm | - | - | - |
| 1777585730 | 26.67° C | 68% | 1008.2 hPa | 0 mm | - | - | - |
| 1777585670 | 23.89° C | 42% | 1020.4 hPa | 0 mm | - | - | - |
| 1777585610 | 26.67° C | 68% | 1008.1 hPa | 0 mm | - | - | - |
| 1777585550 | 26.67° C | 69% | 1008.1 hPa | 0 mm | - | - | - |
| 1777585460 | 23.89° C | 42% | 1020.4 hPa | 0 mm | - | - | - |
| 1777585400 | 26.11° C | 68% | 1008.1 hPa | 0 mm | - | - | - |
* Rain latest hour (hover to see other rain measurements)
** Current wind speed in m/s (hover to see current wind gust speed)